sensor_id;sensor_type;location;lat;lon;timestamp;temperature;humidity
22450;DHT22;11392;57.390;-2.468;2023-07-28T00:00:53;15.10;99.90
22450;DHT22;11392;57.390;-2.468;2023-07-28T00:03:20;15.00;99.90
22450;DHT22;11392;57.390;-2.468;2023-07-28T00:05:47;15.10;99.90
22450;DHT22;11392;57.390;-2.468;2023-07-28T00:08:14;15.10;99.90
22450;DHT22;11392;57.390;-2.468;2023-07-28T00:10:42;15.00;99.90
22450;DHT22;11392;57.390;-2.468;2023-07-28T00:13:09;15.10;99.90
22450;DHT22;11392;57.390;-2.468;2023-07-28T00:15:36;15.10;99.90
22450;DHT22;11392;57.390;-2.468;2023-07-28T00:18:03;15.10;99.90
22450;DHT22;11392;57.390;-2.468;2023-07-28T00:20:30;15.10;99.90
22450;DHT22;11392;57.390;-2.468;2023-07-28T00:22:57;15.10;99.90
22450;DHT22;11392;57.390;-2.468;2023-07-28T00:25:25;15.10;99.90
22450;DHT22;11392;57.390;-2.468;2023-07-28T00:27:52;15.10;99.90
22450;DHT22;11392;57.390;-2.468;2023-07-28T00:30:19;15.10;99.90
22450;DHT22;11392;57.390;-2.468;2023-07-28T00:32:46;15.10;99.90
22450;DHT22;11392;57.390;-2.468;2023-07-28T00:35:13;15.10;99.90
22450;DHT22;11392;57.390;-2.468;2023-07-28T00:37:40;15.10;99.90
22450;DHT22;11392;57.390;-2.468;2023-07-28T00:40:08;15.10;99.90
22450;DHT22;11392;57.390;-2.468;2023-07-28T00:42:35;15.10;99.90
22450;DHT22;11392;57.390;-2.468;2023-07-28T00:45:03;15.10;99.90
22450;DHT22;11392;57.390;-2.468;2023-07-28T00:47:30;15.10;99.90
22450;DHT22;11392;57.390;-2.468;2023-07-28T00:49:58;15.10;99.90
22450;DHT22;11392;57.390;-2.468;2023-07-28T00:52:25;15.10;99.90
22450;DHT22;11392;57.390;-2.468;2023-07-28T00:54:52;15.10;99.90
22450;DHT22;11392;57.390;-2.468;2023-07-28T00:57:19;15.00;99.90
22450;DHT22;11392;57.390;-2.468;2023-07-28T00:59:46;15.10;99.90
22450;DHT22;11392;57.390;-2.468;2023-07-28T01:02:17;15.00;99.90
22450;DHT22;11392;57.390;-2.468;2023-07-28T01:04:45;15.00;99.90
22450;DHT22;11392;57.390;-2.468;2023-07-28T01:07:48;15.00;99.90
22450;DHT22;11392;57.390;-2.468;2023-07-28T01:10:28;15.00;99.90
22450;DHT22;11392;57.390;-2.468;2023-07-28T01:12:56;15.00;99.90
22450;DHT22;11392;57.390;-2.468;2023-07-28T01:15:23;15.00;99.90
22450;DHT22;11392;57.390;-2.468;2023-07-28T01:17:51;15.00;99.90
22450;DHT22;11392;57.390;-2.468;2023-07-28T01:20:18;15.00;99.90
22450;DHT22;11392;57.390;-2.468;2023-07-28T01:27:57;14.90;99.90
22450;DHT22;11392;57.390;-2.468;2023-07-28T01:30:26;14.90;99.90
22450;DHT22;11392;57.390;-2.468;2023-07-28T01:32:55;14.90;99.90
22450;DHT22;11392;57.390;-2.468;2023-07-28T01:35:23;14.90;99.90
22450;DHT22;11392;57.390;-2.468;2023-07-28T01:37:50;14.90;99.90
22450;DHT22;11392;57.390;-2.468;2023-07-28T01:40:18;14.90;99.90
22450;DHT22;11392;57.390;-2.468;2023-07-28T01:42:45;14.90;99.90
22450;DHT22;11392;57.390;-2.468;2023-07-28T01:45:12;15.00;99.90
22450;DHT22;11392;57.390;-2.468;2023-07-28T01:47:39;15.00;99.90
22450;DHT22;11392;57.390;-2.468;2023-07-28T01:50:06;15.00;99.90
22450;DHT22;11392;57.390;-2.468;2023-07-28T01:52:33;15.00;99.90
22450;DHT22;11392;57.390;-2.468;2023-07-28T01:55:01;14.90;99.90
22450;DHT22;11392;57.390;-2.468;2023-07-28T01:57:30;14.90;99.90
22450;DHT22;11392;57.390;-2.468;2023-07-28T01:59:57;14.80;99.90
22450;DHT22;11392;57.390;-2.468;2023-07-28T02:02:24;14.90;99.90
22450;DHT22;11392;57.390;-2.468;2023-07-28T02:04:51;14.80;99.90
22450;DHT22;11392;57.390;-2.468;2023-07-28T02:07:18;14.80;99.90
22450;DHT22;11392;57.390;-2.468;2023-07-28T02:09:45;14.80;99.90
22450;DHT22;11392;57.390;-2.468;2023-07-28T02:12:12;14.80;99.90
22450;DHT22;11392;57.390;-2.468;2023-07-28T02:14:39;14.80;99.90
22450;DHT22;11392;57.390;-2.468;2023-07-28T02:17:06;14.80;99.90
22450;DHT22;11392;57.390;-2.468;2023-07-28T02:19:33;14.80;99.90
22450;DHT22;11392;57.390;-2.468;2023-07-28T02:22:00;14.80;99.90
22450;DHT22;11392;57.390;-2.468;2023-07-28T02:24:28;14.80;99.90
22450;DHT22;11392;57.390;-2.468;2023-07-28T02:26:55;14.80;99.90
22450;DHT22;11392;57.390;-2.468;2023-07-28T02:29:22;14.90;99.90
22450;DHT22;11392;57.390;-2.468;2023-07-28T02:31:49;14.90;99.90
22450;DHT22;11392;57.390;-2.468;2023-07-28T02:34:16;14.90;99.90
22450;DHT22;11392;57.390;-2.468;2023-07-28T02:36:43;14.90;99.90
22450;DHT22;11392;57.390;-2.468;2023-07-28T02:39:10;14.80;99.90
22450;DHT22;11392;57.390;-2.468;2023-07-28T02:41:37;14.80;99.90
22450;DHT22;11392;57.390;-2.468;2023-07-28T02:44:04;14.80;99.90
22450;DHT22;11392;57.390;-2.468;2023-07-28T02:46:31;14.80;99.90
22450;DHT22;11392;57.390;-2.468;2023-07-28T02:48:59;14.80;99.90
22450;DHT22;11392;57.390;-2.468;2023-07-28T02:51:26;14.80;99.90
22450;DHT22;11392;57.390;-2.468;2023-07-28T02:53:53;14.80;99.90
22450;DHT22;11392;57.390;-2.468;2023-07-28T02:56:20;14.80;99.90
22450;DHT22;11392;57.390;-2.468;2023-07-28T02:58:48;14.80;99.90
22450;DHT22;11392;57.390;-2.468;2023-07-28T03:01:15;14.80;99.90
22450;DHT22;11392;57.390;-2.468;2023-07-28T03:03:42;14.80;99.90
22450;DHT22;11392;57.390;-2.468;2023-07-28T03:06:09;14.80;99.90
22450;DHT22;11392;57.390;-2.468;2023-07-28T03:08:36;14.80;99.90
22450;DHT22;11392;57.390;-2.468;2023-07-28T03:11:03;14.80;99.90
22450;DHT22;11392;57.390;-2.468;2023-07-28T03:13:30;14.80;99.90
22450;DHT22;11392;57.390;-2.468;2023-07-28T03:15:57;14.80;99.90
22450;DHT22;11392;57.390;-2.468;2023-07-28T03:18:24;14.80;99.90
22450;DHT22;11392;57.390;-2.468;2023-07-28T03:20:51;14.80;99.90
22450;DHT22;11392;57.390;-2.468;2023-07-28T03:23:18;14.70;99.90
22450;DHT22;11392;57.390;-2.468;2023-07-28T03:25:45;14.80;99.90
22450;DHT22;11392;57.390;-2.468;2023-07-28T03:28:12;14.90;99.90
22450;DHT22;11392;57.390;-2.468;2023-07-28T03:30:39;14.80;99.90
22450;DHT22;11392;57.390;-2.468;2023-07-28T03:33:06;14.90;99.90
22450;DHT22;11392;57.390;-2.468;2023-07-28T03:35:33;14.80;99.90
22450;DHT22;11392;57.390;-2.468;2023-07-28T03:38:00;14.80;99.90
22450;DHT22;11392;57.390;-2.468;2023-07-28T03:40:27;14.80;99.90
22450;DHT22;11392;57.390;-2.468;2023-07-28T03:42:54;14.80;99.90
22450;DHT22;11392;57.390;-2.468;2023-07-28T03:45:21;14.80;99.90
22450;DHT22;11392;57.390;-2.468;2023-07-28T03:47:48;14.70;99.90
22450;DHT22;11392;57.390;-2.468;2023-07-28T03:50:15;14.70;99.90
22450;DHT22;11392;57.390;-2.468;2023-07-28T03:52:42;14.70;99.90
22450;DHT22;11392;57.390;-2.468;2023-07-28T03:55:09;14.70;99.90
22450;DHT22;11392;57.390;-2.468;2023-07-28T03:57:36;14.70;99.90
22450;DHT22;11392;57.390;-2.468;2023-07-28T04:00:04;14.70;99.90
22450;DHT22;11392;57.390;-2.468;2023-07-28T04:02:31;14.70;99.90
22450;DHT22;11392;57.390;-2.468;2023-07-28T04:04:58;14.60;99.90
22450;DHT22;11392;57.390;-2.468;2023-07-28T04:07:25;14.70;99.90
22450;DHT22;11392;57.390;-2.468;2023-07-28T04:09:52;14.70;99.90
22450;DHT22;11392;57.390;-2.468;2023-07-28T04:12:19;14.70;99.90
22450;DHT22;11392;57.390;-2.468;2023-07-28T04:14:46;14.70;99.90
22450;DHT22;11392;57.390;-2.468;2023-07-28T04:17:13;14.70;99.90
22450;DHT22;11392;57.390;-2.468;2023-07-28T04:19:40;14.70;99.90
22450;DHT22;11392;57.390;-2.468;2023-07-28T04:22:07;14.70;99.90
22450;DHT22;11392;57.390;-2.468;2023-07-28T04:24:34;14.80;99.90
22450;DHT22;11392;57.390;-2.468;2023-07-28T04:27:01;14.80;99.90
22450;DHT22;11392;57.390;-2.468;2023-07-28T04:29:28;14.80;99.90
22450;DHT22;11392;57.390;-2.468;2023-07-28T04:31:55;14.90;99.90
22450;DHT22;11392;57.390;-2.468;2023-07-28T04:34:22;14.90;99.90
22450;DHT22;11392;57.390;-2.468;2023-07-28T04:36:49;14.90;99.90
22450;DHT22;11392;57.390;-2.468;2023-07-28T04:39:16;14.80;99.90
22450;DHT22;11392;57.390;-2.468;2023-07-28T04:41:43;14.90;99.90
22450;DHT22;11392;57.390;-2.468;2023-07-28T04:44:10;14.90;99.90
22450;DHT22;11392;57.390;-2.468;2023-07-28T04:46:37;14.90;99.90
22450;DHT22;11392;57.390;-2.468;2023-07-28T04:49:04;14.90;99.90
22450;DHT22;11392;57.390;-2.468;2023-07-28T04:51:31;14.90;99.90
22450;DHT22;11392;57.390;-2.468;2023-07-28T04:53:58;14.90;99.90
22450;DHT22;11392;57.390;-2.468;2023-07-28T04:56:25;15.00;99.90
22450;DHT22;11392;57.390;-2.468;2023-07-28T04:58:52;15.00;99.90
22450;DHT22;11392;57.390;-2.468;2023-07-28T05:01:19;15.00;99.90
22450;DHT22;11392;57.390;-2.468;2023-07-28T05:03:46;15.00;99.90
22450;DHT22;11392;57.390;-2.468;2023-07-28T05:06:13;14.90;99.90
22450;DHT22;11392;57.390;-2.468;2023-07-28T05:08:40;15.00;99.90
22450;DHT22;11392;57.390;-2.468;2023-07-28T05:11:07;15.00;99.90
22450;DHT22;11392;57.390;-2.468;2023-07-28T05:13:34;15.00;99.90
22450;DHT22;11392;57.390;-2.468;2023-07-28T05:16:01;15.00;99.90
22450;DHT22;11392;57.390;-2.468;2023-07-28T05:18:28;15.10;99.90
22450;DHT22;11392;57.390;-2.468;2023-07-28T05:20:55;15.10;99.90
22450;DHT22;11392;57.390;-2.468;2023-07-28T05:23:22;15.10;99.90
22450;DHT22;11392;57.390;-2.468;2023-07-28T05:25:49;15.10;99.90
22450;DHT22;11392;57.390;-2.468;2023-07-28T05:28:16;15.10;99.90
22450;DHT22;11392;57.390;-2.468;2023-07-28T05:30:43;15.10;99.90
22450;DHT22;11392;57.390;-2.468;2023-07-28T05:33:10;15.20;99.90
22450;DHT22;11392;57.390;-2.468;2023-07-28T05:35:37;15.20;99.90
22450;DHT22;11392;57.390;-2.468;2023-07-28T05:38:04;15.20;99.90
22450;DHT22;11392;57.390;-2.468;2023-07-28T05:40:31;15.20;99.90
22450;DHT22;11392;57.390;-2.468;2023-07-28T05:42:58;15.20;99.90
22450;DHT22;11392;57.390;-2.468;2023-07-28T05:45:25;15.30;99.90
22450;DHT22;11392;57.390;-2.468;2023-07-28T05:47:52;15.30;99.90
22450;DHT22;11392;57.390;-2.468;2023-07-28T05:50:19;15.30;99.90
22450;DHT22;11392;57.390;-2.468;2023-07-28T05:52:46;15.30;99.90
22450;DHT22;11392;57.390;-2.468;2023-07-28T05:55:13;15.40;99.90
22450;DHT22;11392;57.390;-2.468;2023-07-28T05:57:40;15.40;99.90
22450;DHT22;11392;57.390;-2.468;2023-07-28T06:00:08;15.40;99.90
22450;DHT22;11392;57.390;-2.468;2023-07-28T06:02:36;15.50;99.90
22450;DHT22;11392;57.390;-2.468;2023-07-28T06:05:04;15.50;99.90
22450;DHT22;11392;57.390;-2.468;2023-07-28T06:07:31;15.50;99.90
22450;DHT22;11392;57.390;-2.468;2023-07-28T06:09:57;15.60;99.90
22450;DHT22;11392;57.390;-2.468;2023-07-28T06:12:24;15.70;99.90
22450;DHT22;11392;57.390;-2.468;2023-07-28T06:14:51;15.70;99.90
22450;DHT22;11392;57.390;-2.468;2023-07-28T06:17:18;15.70;99.90
22450;DHT22;11392;57.390;-2.468;2023-07-28T06:19:46;15.80;99.90
22450;DHT22;11392;57.390;-2.468;2023-07-28T06:33:08;15.80;99.90
22450;DHT22;11392;57.390;-2.468;2023-07-28T06:35:36;15.90;99.90
22450;DHT22;11392;57.390;-2.468;2023-07-28T06:38:03;15.90;99.90
22450;DHT22;11392;57.390;-2.468;2023-07-28T06:40:30;15.90;99.90
22450;DHT22;11392;57.390;-2.468;2023-07-28T06:42:57;16.00;99.90
22450;DHT22;11392;57.390;-2.468;2023-07-28T06:45:24;16.00;99.90
22450;DHT22;11392;57.390;-2.468;2023-07-28T06:47:51;16.00;99.90
22450;DHT22;11392;57.390;-2.468;2023-07-28T06:50:18;16.10;99.90
22450;DHT22;11392;57.390;-2.468;2023-07-28T06:52:46;16.10;99.90
22450;DHT22;11392;57.390;-2.468;2023-07-28T06:55:15;16.10;99.90
22450;DHT22;11392;57.390;-2.468;2023-07-28T06:57:43;16.20;99.90
22450;DHT22;11392;57.390;-2.468;2023-07-28T07:00:10;16.20;99.90
22450;DHT22;11392;57.390;-2.468;2023-07-28T07:02:37;16.20;99.90
22450;DHT22;11392;57.390;-2.468;2023-07-28T07:05:05;16.30;99.90
22450;DHT22;11392;57.390;-2.468;2023-07-28T07:07:33;16.40;99.90
22450;DHT22;11392;57.390;-2.468;2023-07-28T07:10:00;16.40;99.90
22450;DHT22;11392;57.390;-2.468;2023-07-28T07:12:27;16.40;99.90
22450;DHT22;11392;57.390;-2.468;2023-07-28T07:14:54;16.40;99.90
22450;DHT22;11392;57.390;-2.468;2023-07-28T07:17:21;16.40;99.90
22450;DHT22;11392;57.390;-2.468;2023-07-28T07:19:48;16.40;99.90
22450;DHT22;11392;57.390;-2.468;2023-07-28T07:22:15;16.40;99.90
22450;DHT22;11392;57.390;-2.468;2023-07-28T07:24:42;16.30;99.90
22450;DHT22;11392;57.390;-2.468;2023-07-28T07:27:10;16.30;99.90
22450;DHT22;11392;57.390;-2.468;2023-07-28T07:29:39;16.30;99.90
22450;DHT22;11392;57.390;-2.468;2023-07-28T07:32:07;16.30;99.90
22450;DHT22;11392;57.390;-2.468;2023-07-28T07:34:34;16.30;99.90
22450;DHT22;11392;57.390;-2.468;2023-07-28T07:37:04;16.30;99.90
22450;DHT22;11392;57.390;-2.468;2023-07-28T07:39:31;16.30;99.90
22450;DHT22;11392;57.390;-2.468;2023-07-28T07:41:58;16.40;99.90
22450;DHT22;11392;57.390;-2.468;2023-07-28T07:44:25;16.40;99.90
22450;DHT22;11392;57.390;-2.468;2023-07-28T07:46:52;16.40;99.90
22450;DHT22;11392;57.390;-2.468;2023-07-28T07:49:19;16.30;99.90
22450;DHT22;11392;57.390;-2.468;2023-07-28T07:51:46;16.20;99.90
22450;DHT22;11392;57.390;-2.468;2023-07-28T07:54:13;16.10;99.90
22450;DHT22;11392;57.390;-2.468;2023-07-28T07:56:42;16.00;99.90
22450;DHT22;11392;57.390;-2.468;2023-07-28T07:59:09;16.00;99.90
22450;DHT22;11392;57.390;-2.468;2023-07-28T08:01:36;16.00;99.90
22450;DHT22;11392;57.390;-2.468;2023-07-28T08:04:04;15.90;99.90
22450;DHT22;11392;57.390;-2.468;2023-07-28T08:06:31;16.00;99.90
22450;DHT22;11392;57.390;-2.468;2023-07-28T08:08:58;15.90;99.90
22450;DHT22;11392;57.390;-2.468;2023-07-28T08:11:26;15.90;99.90
22450;DHT22;11392;57.390;-2.468;2023-07-28T08:13:53;15.90;99.90
22450;DHT22;11392;57.390;-2.468;2023-07-28T08:16:22;16.00;99.90
22450;DHT22;11392;57.390;-2.468;2023-07-28T08:18:49;15.90;99.90
22450;DHT22;11392;57.390;-2.468;2023-07-28T08:21:16;15.90;99.90
22450;DHT22;11392;57.390;-2.468;2023-07-28T08:23:43;16.00;99.90
22450;DHT22;11392;57.390;-2.468;2023-07-28T08:26:10;16.10;99.90
22450;DHT22;11392;57.390;-2.468;2023-07-28T08:28:37;16.20;99.90
22450;DHT22;11392;57.390;-2.468;2023-07-28T08:31:04;16.30;99.90
22450;DHT22;11392;57.390;-2.468;2023-07-28T08:33:31;16.30;99.90
22450;DHT22;11392;57.390;-2.468;2023-07-28T08:35:58;16.40;99.90
22450;DHT22;11392;57.390;-2.468;2023-07-28T08:38:29;16.40;99.90
22450;DHT22;11392;57.390;-2.468;2023-07-28T08:40:56;16.50;99.90
22450;DHT22;11392;57.390;-2.468;2023-07-28T08:43:25;16.60;99.90
22450;DHT22;11392;57.390;-2.468;2023-07-28T08:45:53;16.70;99.90
22450;DHT22;11392;57.390;-2.468;2023-07-28T08:48:22;16.90;99.90
22450;DHT22;11392;57.390;-2.468;2023-07-28T08:50:49;17.20;99.90
22450;DHT22;11392;57.390;-2.468;2023-07-28T08:53:17;17.40;99.90
22450;DHT22;11392;57.390;-2.468;2023-07-28T08:55:44;17.60;99.90
22450;DHT22;11392;57.390;-2.468;2023-07-28T08:58:22;17.70;99.90
22450;DHT22;11392;57.390;-2.468;2023-07-28T09:00:51;17.90;99.90
22450;DHT22;11392;57.390;-2.468;2023-07-28T09:03:20;18.00;99.90
22450;DHT22;11392;57.390;-2.468;2023-07-28T09:05:48;18.00;99.90
22450;DHT22;11392;57.390;-2.468;2023-07-28T09:08:16;18.10;99.90
22450;DHT22;11392;57.390;-2.468;2023-07-28T09:10:48;18.10;99.90
22450;DHT22;11392;57.390;-2.468;2023-07-28T09:13:17;18.10;99.90
22450;DHT22;11392;57.390;-2.468;2023-07-28T09:15:44;18.20;99.90
22450;DHT22;11392;57.390;-2.468;2023-07-28T09:18:16;18.60;99.90
22450;DHT22;11392;57.390;-2.468;2023-07-28T09:20:43;19.10;99.90
22450;DHT22;11392;57.390;-2.468;2023-07-28T09:23:14;19.40;99.90
22450;DHT22;11392;57.390;-2.468;2023-07-28T09:25:42;19.90;99.90
22450;DHT22;11392;57.390;-2.468;2023-07-28T09:28:09;19.90;99.90
22450;DHT22;11392;57.390;-2.468;2023-07-28T09:30:48;20.00;99.90
22450;DHT22;11392;57.390;-2.468;2023-07-28T09:33:33;20.50;99.90
22450;DHT22;11392;57.390;-2.468;2023-07-28T09:36:12;20.50;99.90
22450;DHT22;11392;57.390;-2.468;2023-07-28T09:38:40;20.30;99.90
22450;DHT22;11392;57.390;-2.468;2023-07-28T09:41:09;19.90;99.90
22450;DHT22;11392;57.390;-2.468;2023-07-28T09:43:38;20.00;99.90
22450;DHT22;11392;57.390;-2.468;2023-07-28T09:46:08;20.10;99.90
22450;DHT22;11392;57.390;-2.468;2023-07-28T09:48:38;19.80;99.90
22450;DHT22;11392;57.390;-2.468;2023-07-28T09:51:14;19.60;99.90
22450;DHT22;11392;57.390;-2.468;2023-07-28T09:53:48;19.50;99.90
22450;DHT22;11392;57.390;-2.468;2023-07-28T09:56:16;19.70;99.90
22450;DHT22;11392;57.390;-2.468;2023-07-28T09:58:49;19.80;99.90
22450;DHT22;11392;57.390;-2.468;2023-07-28T10:01:17;19.90;99.90
22450;DHT22;11392;57.390;-2.468;2023-07-28T10:03:46;20.20;99.90
22450;DHT22;11392;57.390;-2.468;2023-07-28T10:06:14;20.00;99.90
22450;DHT22;11392;57.390;-2.468;2023-07-28T10:08:44;20.30;99.90
22450;DHT22;11392;57.390;-2.468;2023-07-28T10:11:15;20.40;99.90
22450;DHT22;11392;57.390;-2.468;2023-07-28T10:13:44;20.30;99.90
22450;DHT22;11392;57.390;-2.468;2023-07-28T10:16:13;20.30;99.90
22450;DHT22;11392;57.390;-2.468;2023-07-28T10:18:54;20.30;99.90
22450;DHT22;11392;57.390;-2.468;2023-07-28T10:21:21;20.20;99.90
22450;DHT22;11392;57.390;-2.468;2023-07-28T10:23:55;20.00;99.90
22450;DHT22;11392;57.390;-2.468;2023-07-28T10:26:39;20.20;99.90
22450;DHT22;11392;57.390;-2.468;2023-07-28T10:29:12;20.40;99.90
22450;DHT22;11392;57.390;-2.468;2023-07-28T10:31:53;20.60;99.90
22450;DHT22;11392;57.390;-2.468;2023-07-28T10:34:21;21.30;99.90
22450;DHT22;11392;57.390;-2.468;2023-07-28T10:36:58;21.80;99.90
22450;DHT22;11392;57.390;-2.468;2023-07-28T10:39:26;22.10;99.90
22450;DHT22;11392;57.390;-2.468;2023-07-28T10:42:08;22.20;99.90
22450;DHT22;11392;57.390;-2.468;2023-07-28T10:44:36;22.70;99.90
22450;DHT22;11392;57.390;-2.468;2023-07-28T10:47:08;23.20;99.90
22450;DHT22;11392;57.390;-2.468;2023-07-28T10:49:36;23.80;99.90
22450;DHT22;11392;57.390;-2.468;2023-07-28T10:52:03;23.80;99.90
22450;DHT22;11392;57.390;-2.468;2023-07-28T10:54:34;24.20;99.90
22450;DHT22;11392;57.390;-2.468;2023-07-28T10:57:04;24.10;99.90
22450;DHT22;11392;57.390;-2.468;2023-07-28T10:59:33;24.40;99.90
22450;DHT22;11392;57.390;-2.468;2023-07-28T11:02:02;24.70;99.90
22450;DHT22;11392;57.390;-2.468;2023-07-28T11:04:29;25.10;99.90
22450;DHT22;11392;57.390;-2.468;2023-07-28T11:06:56;25.00;99.90
22450;DHT22;11392;57.390;-2.468;2023-07-28T11:09:23;25.30;99.90
22450;DHT22;11392;57.390;-2.468;2023-07-28T11:11:51;24.80;99.90
22450;DHT22;11392;57.390;-2.468;2023-07-28T11:14:18;25.10;99.90
22450;DHT22;11392;57.390;-2.468;2023-07-28T11:16:46;25.30;99.90
22450;DHT22;11392;57.390;-2.468;2023-07-28T11:19:17;25.10;99.90
22450;DHT22;11392;57.390;-2.468;2023-07-28T11:21:52;25.20;99.90
22450;DHT22;11392;57.390;-2.468;2023-07-28T11:24:20;25.10;99.90
22450;DHT22;11392;57.390;-2.468;2023-07-28T11:26:49;25.30;99.90
22450;DHT22;11392;57.390;-2.468;2023-07-28T11:29:18;25.20;99.90
22450;DHT22;11392;57.390;-2.468;2023-07-28T11:31:45;25.20;99.90
22450;DHT22;11392;57.390;-2.468;2023-07-28T11:34:18;24.90;99.90
22450;DHT22;11392;57.390;-2.468;2023-07-28T11:36:45;24.70;99.90
22450;DHT22;11392;57.390;-2.468;2023-07-28T11:39:13;24.40;99.90
22450;DHT22;11392;57.390;-2.468;2023-07-28T11:41:42;24.30;99.90
22450;DHT22;11392;57.390;-2.468;2023-07-28T11:44:10;23.80;99.90
22450;DHT22;11392;57.390;-2.468;2023-07-28T11:46:39;24.00;99.90
22450;DHT22;11392;57.390;-2.468;2023-07-28T11:49:13;24.30;99.90
22450;DHT22;11392;57.390;-2.468;2023-07-28T11:51:43;24.50;99.90
22450;DHT22;11392;57.390;-2.468;2023-07-28T11:54:16;24.60;99.90
22450;DHT22;11392;57.390;-2.468;2023-07-28T11:56:45;24.50;99.90
22450;DHT22;11392;57.390;-2.468;2023-07-28T11:59:15;24.40;99.90
22450;DHT22;11392;57.390;-2.468;2023-07-28T12:04:30;25.30;99.90
22450;DHT22;11392;57.390;-2.468;2023-07-28T12:07:28;25.80;99.90
22450;DHT22;11392;57.390;-2.468;2023-07-28T12:09:56;25.40;99.90
22450;DHT22;11392;57.390;-2.468;2023-07-28T12:12:31;25.60;99.90
22450;DHT22;11392;57.390;-2.468;2023-07-28T12:15:01;25.90;99.90
22450;DHT22;11392;57.390;-2.468;2023-07-28T12:18:08;26.20;99.90
22450;DHT22;11392;57.390;-2.468;2023-07-28T12:20:43;25.90;99.90
22450;DHT22;11392;57.390;-2.468;2023-07-28T12:23:15;26.20;99.90
22450;DHT22;11392;57.390;-2.468;2023-07-28T12:25:45;26.40;99.90
22450;DHT22;11392;57.390;-2.468;2023-07-28T12:28:12;26.10;99.90
22450;DHT22;11392;57.390;-2.468;2023-07-28T12:30:42;26.30;99.90
22450;DHT22;11392;57.390;-2.468;2023-07-28T12:33:10;26.30;99.90
22450;DHT22;11392;57.390;-2.468;2023-07-28T12:35:40;26.20;99.90
22450;DHT22;11392;57.390;-2.468;2023-07-28T12:38:10;26.30;99.90
22450;DHT22;11392;57.390;-2.468;2023-07-28T12:40:40;25.80;99.90
22450;DHT22;11392;57.390;-2.468;2023-07-28T12:43:10;25.60;99.90
22450;DHT22;11392;57.390;-2.468;2023-07-28T12:45:57;25.10;99.90
22450;DHT22;11392;57.390;-2.468;2023-07-28T12:48:27;24.80;99.90
22450;DHT22;11392;57.390;-2.468;2023-07-28T12:50:54;24.30;99.90
22450;DHT22;11392;57.390;-2.468;2023-07-28T12:53:24;23.70;99.90
22450;DHT22;11392;57.390;-2.468;2023-07-28T12:55:51;23.70;99.90
22450;DHT22;11392;57.390;-2.468;2023-07-28T12:58:21;23.20;99.90
22450;DHT22;11392;57.390;-2.468;2023-07-28T13:00:51;23.10;99.90
22450;DHT22;11392;57.390;-2.468;2023-07-28T13:03:21;23.20;99.90
22450;DHT22;11392;57.390;-2.468;2023-07-28T13:05:48;23.80;99.90
22450;DHT22;11392;57.390;-2.468;2023-07-28T13:08:15;24.20;99.90
22450;DHT22;11392;57.390;-2.468;2023-07-28T13:10:43;24.70;99.90
22450;DHT22;11392;57.390;-2.468;2023-07-28T13:13:13;25.10;99.90
22450;DHT22;11392;57.390;-2.468;2023-07-28T13:15:41;25.70;99.90
22450;DHT22;11392;57.390;-2.468;2023-07-28T13:18:08;25.90;99.90
22450;DHT22;11392;57.390;-2.468;2023-07-28T13:20:35;25.80;99.90
22450;DHT22;11392;57.390;-2.468;2023-07-28T13:23:03;26.10;99.90
22450;DHT22;11392;57.390;-2.468;2023-07-28T13:25:30;26.60;99.90
22450;DHT22;11392;57.390;-2.468;2023-07-28T13:27:57;26.90;99.90
22450;DHT22;11392;57.390;-2.468;2023-07-28T13:30:24;27.20;99.90
22450;DHT22;11392;57.390;-2.468;2023-07-28T13:32:55;26.90;99.90
22450;DHT22;11392;57.390;-2.468;2023-07-28T13:35:23;26.50;99.90
22450;DHT22;11392;57.390;-2.468;2023-07-28T13:37:52;26.10;99.90
22450;DHT22;11392;57.390;-2.468;2023-07-28T13:40:19;25.60;99.90
22450;DHT22;11392;57.390;-2.468;2023-07-28T13:42:46;25.30;99.90
22450;DHT22;11392;57.390;-2.468;2023-07-28T13:45:14;25.10;99.90
22450;DHT22;11392;57.390;-2.468;2023-07-28T13:47:41;24.70;99.90
22450;DHT22;11392;57.390;-2.468;2023-07-28T13:50:08;24.40;99.90
22450;DHT22;11392;57.390;-2.468;2023-07-28T13:52:35;24.10;99.90
22450;DHT22;11392;57.390;-2.468;2023-07-28T13:55:02;23.50;99.90
22450;DHT22;11392;57.390;-2.468;2023-07-28T13:57:34;23.10;99.90
22450;DHT22;11392;57.390;-2.468;2023-07-28T14:00:03;22.90;99.90
22450;DHT22;11392;57.390;-2.468;2023-07-28T14:02:30;22.70;99.90
22450;DHT22;11392;57.390;-2.468;2023-07-28T14:04:57;22.70;99.90
22450;DHT22;11392;57.390;-2.468;2023-07-28T14:07:24;22.60;99.90
22450;DHT22;11392;57.390;-2.468;2023-07-28T14:09:51;23.00;99.90
22450;DHT22;11392;57.390;-2.468;2023-07-28T14:12:18;23.00;99.90
22450;DHT22;11392;57.390;-2.468;2023-07-28T14:14:45;23.10;99.90
22450;DHT22;11392;57.390;-2.468;2023-07-28T14:17:12;23.90;99.90
22450;DHT22;11392;57.390;-2.468;2023-07-28T14:19:40;24.40;99.90
22450;DHT22;11392;57.390;-2.468;2023-07-28T14:22:08;24.70;99.90
22450;DHT22;11392;57.390;-2.468;2023-07-28T14:24:35;24.90;99.90
22450;DHT22;11392;57.390;-2.468;2023-07-28T14:27:03;25.20;99.90
22450;DHT22;11392;57.390;-2.468;2023-07-28T14:29:30;25.30;99.90
22450;DHT22;11392;57.390;-2.468;2023-07-28T14:31:57;25.30;99.90
22450;DHT22;11392;57.390;-2.468;2023-07-28T14:34:24;25.60;99.90
22450;DHT22;11392;57.390;-2.468;2023-07-28T14:36:51;25.80;99.90
22450;DHT22;11392;57.390;-2.468;2023-07-28T14:39:18;25.80;99.90
22450;DHT22;11392;57.390;-2.468;2023-07-28T14:41:45;25.60;99.90
22450;DHT22;11392;57.390;-2.468;2023-07-28T14:44:12;25.30;99.90
22450;DHT22;11392;57.390;-2.468;2023-07-28T14:46:43;25.10;99.90
22450;DHT22;11392;57.390;-2.468;2023-07-28T14:49:10;24.90;99.90
22450;DHT22;11392;57.390;-2.468;2023-07-28T14:51:37;25.30;99.90
22450;DHT22;11392;57.390;-2.468;2023-07-28T14:54:04;25.20;99.90
22450;DHT22;11392;57.390;-2.468;2023-07-28T14:56:32;25.20;99.90
22450;DHT22;11392;57.390;-2.468;2023-07-28T14:58:59;25.10;99.90
22450;DHT22;11392;57.390;-2.468;2023-07-28T15:01:31;25.00;99.90
22450;DHT22;11392;57.390;-2.468;2023-07-28T15:04:00;24.60;99.90
22450;DHT22;11392;57.390;-2.468;2023-07-28T15:06:30;24.20;99.90
22450;DHT22;11392;57.390;-2.468;2023-07-28T15:08:57;24.20;99.90
22450;DHT22;11392;57.390;-2.468;2023-07-28T15:11:24;24.40;99.90
22450;DHT22;11392;57.390;-2.468;2023-07-28T15:13:51;24.40;99.90
22450;DHT22;11392;57.390;-2.468;2023-07-28T15:16:18;24.10;99.90
22450;DHT22;11392;57.390;-2.468;2023-07-28T15:18:46;24.30;99.90
22450;DHT22;11392;57.390;-2.468;2023-07-28T15:21:13;24.30;99.90
22450;DHT22;11392;57.390;-2.468;2023-07-28T15:23:40;24.10;99.90
22450;DHT22;11392;57.390;-2.468;2023-07-28T15:26:07;24.20;99.90
22450;DHT22;11392;57.390;-2.468;2023-07-28T15:28:35;24.20;99.90
22450;DHT22;11392;57.390;-2.468;2023-07-28T15:31:02;23.90;99.90
22450;DHT22;11392;57.390;-2.468;2023-07-28T15:33:29;24.00;99.90
22450;DHT22;11392;57.390;-2.468;2023-07-28T15:35:57;23.90;99.90
22450;DHT22;11392;57.390;-2.468;2023-07-28T15:38:24;24.00;99.90
22450;DHT22;11392;57.390;-2.468;2023-07-28T15:40:51;23.70;99.90